sensor_id;sensor_type;location;lat;lon;timestamp;P1;durP1;ratioP1;P2;durP2;ratioP2
12888;SDS011;56848;49.896;11.424;2023-02-10T05:01:05;41.17;;;16.58;;
12888;SDS011;56848;49.896;11.424;2023-02-10T05:03:30;43.13;;;15.65;;
12888;SDS011;56848;49.896;11.424;2023-02-10T05:05:56;48.00;;;16.40;;
12888;SDS011;56848;49.896;11.424;2023-02-10T05:08:22;50.60;;;18.40;;
12888;SDS011;56848;49.896;11.424;2023-02-10T05:10:52;48.50;;;18.65;;
12888;SDS011;56848;49.896;11.424;2023-02-10T05:13:18;45.05;;;17.40;;
12888;SDS011;56848;49.896;11.424;2023-02-10T05:15:44;60.15;;;19.85;;
12888;SDS011;56848;49.896;11.424;2023-02-10T05:18:11;44.92;;;18.50;;
12888;SDS011;56848;49.896;11.424;2023-02-10T05:20:36;43.23;;;18.03;;
12888;SDS011;56848;49.896;11.424;2023-02-10T05:23:02;43.93;;;16.90;;
12888;SDS011;56848;49.896;11.424;2023-02-10T05:25:28;51.33;;;17.37;;
12888;SDS011;56848;49.896;11.424;2023-02-10T05:27:53;38.17;;;16.00;;
12888;SDS011;56848;49.896;11.424;2023-02-10T05:30:19;42.53;;;17.00;;
12888;SDS011;56848;49.896;11.424;2023-02-10T05:32:44;45.90;;;16.77;;
12888;SDS011;56848;49.896;11.424;2023-02-10T05:35:10;41.67;;;16.40;;
12888;SDS011;56848;49.896;11.424;2023-02-10T05:37:36;40.40;;;14.67;;
12888;SDS011;56848;49.896;11.424;2023-02-10T05:40:01;42.93;;;15.50;;
12888;SDS011;56848;49.896;11.424;2023-02-10T05:42:28;40.83;;;15.07;;
12888;SDS011;56848;49.896;11.424;2023-02-10T05:44:53;44.47;;;16.60;;
12888;SDS011;56848;49.896;11.424;2023-02-10T05:47:19;47.57;;;17.57;;
12888;SDS011;56848;49.896;11.424;2023-02-10T05:49:44;51.23;;;17.33;;
12888;SDS011;56848;49.896;11.424;2023-02-10T05:52:10;44.70;;;19.03;;
12888;SDS011;56848;49.896;11.424;2023-02-10T05:54:36;45.43;;;16.47;;
12888;SDS011;56848;49.896;11.424;2023-02-10T05:57:01;42.43;;;16.37;;
12888;SDS011;56848;49.896;11.424;2023-02-10T05:59:27;34.00;;;15.50;;
12888;SDS011;56848;49.896;11.424;2023-02-10T06:01:53;41.37;;;17.00;;
12888;SDS011;56848;49.896;11.424;2023-02-10T06:04:18;41.40;;;16.00;;
12888;SDS011;56848;49.896;11.424;2023-02-10T06:06:44;46.10;;;16.20;;
12888;SDS011;56848;49.896;11.424;2023-02-10T06:09:10;51.17;;;17.30;;
12888;SDS011;56848;49.896;11.424;2023-02-10T06:11:35;52.53;;;18.50;;
12888;SDS011;56848;49.896;11.424;2023-02-10T06:14:01;48.23;;;17.93;;
12888;SDS011;56848;49.896;11.424;2023-02-10T06:16:27;47.77;;;18.83;;
12888;SDS011;56848;49.896;11.424;2023-02-10T06:18:52;47.23;;;17.37;;
12888;SDS011;56848;49.896;11.424;2023-02-10T06:21:18;43.50;;;18.30;;
12888;SDS011;56848;49.896;11.424;2023-02-10T06:23:44;36.70;;;17.20;;
12888;SDS011;56848;49.896;11.424;2023-02-10T06:26:10;44.90;;;18.27;;
12888;SDS011;56848;49.896;11.424;2023-02-10T06:28:36;43.07;;;17.67;;
12888;SDS011;56848;49.896;11.424;2023-02-10T06:31:01;49.93;;;20.27;;
12888;SDS011;56848;49.896;11.424;2023-02-10T06:33:28;56.83;;;21.13;;
12888;SDS011;56848;49.896;11.424;2023-02-10T06:35:53;50.73;;;19.13;;
12888;SDS011;56848;49.896;11.424;2023-02-10T06:38:19;50.90;;;18.90;;
12888;SDS011;56848;49.896;11.424;2023-02-10T06:40:44;45.13;;;18.60;;
12888;SDS011;56848;49.896;11.424;2023-02-10T06:43:10;43.73;;;17.90;;
12888;SDS011;56848;49.896;11.424;2023-02-10T06:45:36;44.03;;;19.03;;
12888;SDS011;56848;49.896;11.424;2023-02-10T06:48:02;50.83;;;21.70;;
12888;SDS011;56848;49.896;11.424;2023-02-10T06:50:27;66.53;;;20.37;;
12888;SDS011;56848;49.896;11.424;2023-02-10T06:52:53;45.70;;;18.20;;
12888;SDS011;56848;49.896;11.424;2023-02-10T06:55:19;56.63;;;21.00;;
12888;SDS011;56848;49.896;11.424;2023-02-10T06:57:44;55.03;;;21.23;;
12888;SDS011;56848;49.896;11.424;2023-02-10T07:00:11;49.63;;;20.77;;
12888;SDS011;56848;49.896;11.424;2023-02-10T07:02:39;58.58;;;21.00;;
12888;SDS011;56848;49.896;11.424;2023-02-10T07:05:06;62.80;;;22.80;;
12888;SDS011;56848;49.896;11.424;2023-02-10T07:07:33;53.80;;;21.50;;
12888;SDS011;56848;49.896;11.424;2023-02-10T07:09:59;48.95;;;21.40;;
12888;SDS011;56848;49.896;11.424;2023-02-10T07:12:25;58.53;;;24.10;;
12888;SDS011;56848;49.896;11.424;2023-02-10T07:14:51;56.10;;;22.63;;
12888;SDS011;56848;49.896;11.424;2023-02-10T07:17:17;53.72;;;21.45;;
12888;SDS011;56848;49.896;11.424;2023-02-10T07:19:43;61.03;;;23.88;;
12888;SDS011;56848;49.896;11.424;2023-02-10T07:22:09;53.23;;;23.20;;
12888;SDS011;56848;49.896;11.424;2023-02-10T07:24:34;55.43;;;22.57;;
12888;SDS011;56848;49.896;11.424;2023-02-10T07:27:00;64.47;;;22.37;;
12888;SDS011;56848;49.896;11.424;2023-02-10T07:29:27;54.20;;;22.45;;
12888;SDS011;56848;49.896;11.424;2023-02-10T07:31:52;51.03;;;21.90;;
12888;SDS011;56848;49.896;11.424;2023-02-10T07:34:18;65.03;;;23.30;;
12888;SDS011;56848;49.896;11.424;2023-02-10T07:36:45;55.28;;;23.80;;
12888;SDS011;56848;49.896;11.424;2023-02-10T07:39:19;60.75;;;22.10;;
12888;SDS011;56848;49.896;11.424;2023-02-10T07:41:46;58.42;;;23.63;;
12888;SDS011;56848;49.896;11.424;2023-02-10T07:44:11;58.07;;;23.20;;
12888;SDS011;56848;49.896;11.424;2023-02-10T07:46:37;62.10;;;24.37;;
12888;SDS011;56848;49.896;11.424;2023-02-10T07:49:02;56.63;;;23.57;;
12888;SDS011;56848;49.896;11.424;2023-02-10T07:51:28;56.43;;;22.60;;
12888;SDS011;56848;49.896;11.424;2023-02-10T07:53:53;60.17;;;24.93;;
12888;SDS011;56848;49.896;11.424;2023-02-10T07:56:19;59.40;;;23.93;;
12888;SDS011;56848;49.896;11.424;2023-02-10T07:58:44;54.80;;;21.70;;
12888;SDS011;56848;49.896;11.424;2023-02-10T08:01:10;57.03;;;23.60;;
12888;SDS011;56848;49.896;11.424;2023-02-10T08:03:36;60.85;;;24.63;;
12888;SDS011;56848;49.896;11.424;2023-02-10T08:06:03;64.10;;;25.95;;
12888;SDS011;56848;49.896;11.424;2023-02-10T08:08:29;60.67;;;24.90;;
12888;SDS011;56848;49.896;11.424;2023-02-10T08:10:55;64.63;;;25.63;;
12888;SDS011;56848;49.896;11.424;2023-02-10T08:13:20;60.33;;;21.37;;
12888;SDS011;56848;49.896;11.424;2023-02-10T08:15:46;63.38;;;28.10;;
12888;SDS011;56848;49.896;11.424;2023-02-10T08:18:12;59.73;;;24.83;;
12888;SDS011;56848;49.896;11.424;2023-02-10T08:20:38;64.37;;;26.40;;
12888;SDS011;56848;49.896;11.424;2023-02-10T08:23:05;54.00;;;22.55;;
12888;SDS011;56848;49.896;11.424;2023-02-10T08:25:31;64.47;;;24.40;;
12888;SDS011;56848;49.896;11.424;2023-02-10T08:27:58;67.13;;;26.73;;
12888;SDS011;56848;49.896;11.424;2023-02-10T08:30:23;62.13;;;26.90;;
12888;SDS011;56848;49.896;11.424;2023-02-10T08:32:49;61.40;;;25.70;;
12888;SDS011;56848;49.896;11.424;2023-02-10T08:35:15;71.57;;;26.47;;
12888;SDS011;56848;49.896;11.424;2023-02-10T08:37:41;55.95;;;25.90;;
12888;SDS011;56848;49.896;11.424;2023-02-10T08:40:07;56.77;;;25.37;;
12888;SDS011;56848;49.896;11.424;2023-02-10T08:42:34;59.75;;;22.10;;
12888;SDS011;56848;49.896;11.424;2023-02-10T08:45:00;60.77;;;26.03;;
12888;SDS011;56848;49.896;11.424;2023-02-10T08:47:26;66.07;;;26.47;;
12888;SDS011;56848;49.896;11.424;2023-02-10T08:49:51;59.20;;;25.83;;
12888;SDS011;56848;49.896;11.424;2023-02-10T08:52:17;56.57;;;24.10;;
12888;SDS011;56848;49.896;11.424;2023-02-10T08:54:43;61.50;;;26.70;;
12888;SDS011;56848;49.896;11.424;2023-02-10T08:57:08;62.10;;;26.47;;
12888;SDS011;56848;49.896;11.424;2023-02-10T08:59:34;56.83;;;24.92;;
12888;SDS011;56848;49.896;11.424;2023-02-10T09:02:00;67.23;;;25.40;;
12888;SDS011;56848;49.896;11.424;2023-02-10T09:04:26;54.80;;;24.90;;
12888;SDS011;56848;49.896;11.424;2023-02-10T09:06:51;58.57;;;22.20;;
12888;SDS011;56848;49.896;11.424;2023-02-10T09:09:19;54.07;;;23.40;;
12888;SDS011;56848;49.896;11.424;2023-02-10T09:11:51;54.58;;;22.48;;
12888;SDS011;56848;49.896;11.424;2023-02-10T09:14:20;61.85;;;24.38;;
12888;SDS011;56848;49.896;11.424;2023-02-10T09:16:45;47.50;;;18.20;;
12888;SDS011;56848;49.896;11.424;2023-02-10T09:19:11;51.10;;;21.73;;
12888;SDS011;56848;49.896;11.424;2023-02-10T09:21:37;61.73;;;24.20;;
12888;SDS011;56848;49.896;11.424;2023-02-10T09:24:02;56.83;;;24.27;;
12888;SDS011;56848;49.896;11.424;2023-02-10T09:26:28;55.87;;;24.77;;
12888;SDS011;56848;49.896;11.424;2023-02-10T09:28:53;61.47;;;25.00;;
12888;SDS011;56848;49.896;11.424;2023-02-10T09:31:19;59.30;;;22.60;;
12888;SDS011;56848;49.896;11.424;2023-02-10T09:33:45;55.10;;;25.30;;
12888;SDS011;56848;49.896;11.424;2023-02-10T09:36:15;62.53;;;22.70;;
12888;SDS011;56848;49.896;11.424;2023-02-10T09:38:42;62.20;;;24.08;;
12888;SDS011;56848;49.896;11.424;2023-02-10T09:51:56;60.13;;;25.77;;
12888;SDS011;56848;49.896;11.424;2023-02-10T09:54:30;53.50;;;23.52;;
12888;SDS011;56848;49.896;11.424;2023-02-10T09:57:01;52.28;;;22.45;;
12888;SDS011;56848;49.896;11.424;2023-02-10T09:59:28;51.42;;;21.98;;
12888;SDS011;56848;49.896;11.424;2023-02-10T10:01:57;44.17;;;18.35;;
12888;SDS011;56848;49.896;11.424;2023-02-10T10:04:28;55.83;;;23.55;;
12888;SDS011;56848;49.896;11.424;2023-02-10T10:06:58;48.03;;;20.52;;
12888;SDS011;56848;49.896;11.424;2023-02-10T10:12:15;51.22;;;23.20;;
12888;SDS011;56848;49.896;11.424;2023-02-10T10:14:42;58.38;;;23.75;;
12888;SDS011;56848;49.896;11.424;2023-02-10T10:17:23;52.03;;;25.27;;
12888;SDS011;56848;49.896;11.424;2023-02-10T10:22:53;48.58;;;21.38;;
12888;SDS011;56848;49.896;11.424;2023-02-10T10:30:51;54.50;;;24.48;;
12888;SDS011;56848;49.896;11.424;2023-02-10T10:33:39;68.05;;;24.95;;
12888;SDS011;56848;49.896;11.424;2023-02-10T10:36:33;58.22;;;25.05;;
12888;SDS011;56848;49.896;11.424;2023-02-10T10:41:53;47.83;;;22.33;;
12888;SDS011;56848;49.896;11.424;2023-02-10T10:44:20;54.17;;;23.23;;
12888;SDS011;56848;49.896;11.424;2023-02-10T10:49:37;57.17;;;25.35;;
12888;SDS011;56848;49.896;11.424;2023-02-10T10:52:15;59.10;;;25.30;;
12888;SDS011;56848;49.896;11.424;2023-02-10T10:54:47;53.00;;;21.95;;
12888;SDS011;56848;49.896;11.424;2023-02-10T10:57:12;57.00;;;23.53;;
12888;SDS011;56848;49.896;11.424;2023-02-10T10:59:43;48.30;;;20.50;;
12888;SDS011;56848;49.896;11.424;2023-02-10T11:02:15;52.53;;;21.77;;
12888;SDS011;56848;49.896;11.424;2023-02-10T11:04:42;49.50;;;22.90;;
12888;SDS011;56848;49.896;11.424;2023-02-10T11:07:19;51.70;;;23.05;;
12888;SDS011;56848;49.896;11.424;2023-02-10T11:09:51;53.78;;;25.05;;
12888;SDS011;56848;49.896;11.424;2023-02-10T11:12:24;55.40;;;24.55;;
12888;SDS011;56848;49.896;11.424;2023-02-10T11:14:55;52.30;;;21.83;;
12888;SDS011;56848;49.896;11.424;2023-02-10T11:17:29;53.17;;;25.58;;
12888;SDS011;56848;49.896;11.424;2023-02-10T11:22:38;53.95;;;23.70;;
12888;SDS011;56848;49.896;11.424;2023-02-10T11:27:51;53.97;;;22.92;;
12888;SDS011;56848;49.896;11.424;2023-02-10T11:30:28;55.80;;;23.88;;
12888;SDS011;56848;49.896;11.424;2023-02-10T11:33:01;51.90;;;22.50;;
12888;SDS011;56848;49.896;11.424;2023-02-10T11:35:28;59.08;;;24.85;;
12888;SDS011;56848;49.896;11.424;2023-02-10T11:38:05;49.10;;;22.70;;
12888;SDS011;56848;49.896;11.424;2023-02-10T11:40:51;55.53;;;21.92;;
12888;SDS011;56848;49.896;11.424;2023-02-10T11:43:20;46.70;;;21.45;;
12888;SDS011;56848;49.896;11.424;2023-02-10T11:46:04;49.00;;;23.25;;
12888;SDS011;56848;49.896;11.424;2023-02-10T11:48:34;52.92;;;22.88;;
12888;SDS011;56848;49.896;11.424;2023-02-10T11:51:13;52.17;;;22.93;;
12888;SDS011;56848;49.896;11.424;2023-02-10T11:53:43;51.30;;;23.05;;
12888;SDS011;56848;49.896;11.424;2023-02-10T12:05:02;55.53;;;20.67;;
12888;SDS011;56848;49.896;11.424;2023-02-10T12:15:44;56.17;;;24.15;;
12888;SDS011;56848;49.896;11.424;2023-02-10T12:21:02;45.85;;;21.05;;
12888;SDS011;56848;49.896;11.424;2023-02-10T12:29:14;46.17;;;21.67;;
12888;SDS011;56848;49.896;11.424;2023-02-10T12:42:59;57.33;;;21.55;;
12888;SDS011;56848;49.896;11.424;2023-02-10T12:45:46;47.58;;;22.33;;
12888;SDS011;56848;49.896;11.424;2023-02-10T12:48:29;59.38;;;26.17;;
12888;SDS011;56848;49.896;11.424;2023-02-10T12:54:30;51.78;;;21.90;;
12888;SDS011;56848;49.896;11.424;2023-02-10T12:57:07;46.47;;;19.85;;
12888;SDS011;56848;49.896;11.424;2023-02-10T12:59:58;53.92;;;24.00;;
12888;SDS011;56848;49.896;11.424;2023-02-10T13:05:14;58.67;;;25.20;;
12888;SDS011;56848;49.896;11.424;2023-02-10T13:13:15;56.25;;;24.08;;
12888;SDS011;56848;49.896;11.424;2023-02-10T13:15:59;52.90;;;23.80;;
12888;SDS011;56848;49.896;11.424;2023-02-10T13:18:31;55.80;;;22.73;;
12888;SDS011;56848;49.896;11.424;2023-02-10T13:21:03;54.03;;;22.88;;
12888;SDS011;56848;49.896;11.424;2023-02-10T13:36:56;56.80;;;25.83;;
12888;SDS011;56848;49.896;11.424;2023-02-10T13:39:24;52.72;;;20.75;;
12888;SDS011;56848;49.896;11.424;2023-02-10T13:42:04;64.18;;;24.15;;
12888;SDS011;56848;49.896;11.424;2023-02-10T13:44:34;57.25;;;22.50;;
12888;SDS011;56848;49.896;11.424;2023-02-10T13:52:23;59.83;;;23.70;;
12888;SDS011;56848;49.896;11.424;2023-02-10T13:54:57;52.72;;;23.60;;
12888;SDS011;56848;49.896;11.424;2023-02-10T13:57:25;57.38;;;26.15;;
12888;SDS011;56848;49.896;11.424;2023-02-10T13:59:53;64.13;;;26.08;;
12888;SDS011;56848;49.896;11.424;2023-02-10T14:05:35;56.70;;;24.75;;
12888;SDS011;56848;49.896;11.424;2023-02-10T14:08:26;69.20;;;24.63;;
12888;SDS011;56848;49.896;11.424;2023-02-10T14:13:38;57.20;;;22.38;;
12888;SDS011;56848;49.896;11.424;2023-02-10T14:18:40;34.70;;;14.55;;
12888;SDS011;56848;49.896;11.424;2023-02-10T14:21:12;48.78;;;20.90;;
12888;SDS011;56848;49.896;11.424;2023-02-10T14:23:40;55.40;;;23.50;;
12888;SDS011;56848;49.896;11.424;2023-02-10T14:26:31;66.32;;;28.30;;
12888;SDS011;56848;49.896;11.424;2023-02-10T14:28:59;55.65;;;20.65;;
12888;SDS011;56848;49.896;11.424;2023-02-10T14:31:28;55.03;;;22.58;;
12888;SDS011;56848;49.896;11.424;2023-02-10T14:34:02;65.03;;;24.25;;
12888;SDS011;56848;49.896;11.424;2023-02-10T14:36:29;67.20;;;26.90;;
12888;SDS011;56848;49.896;11.424;2023-02-10T14:38:57;61.80;;;25.15;;
12888;SDS011;56848;49.896;11.424;2023-02-10T14:41:24;64.78;;;27.20;;
12888;SDS011;56848;49.896;11.424;2023-02-10T14:43:53;63.13;;;27.15;;
12888;SDS011;56848;49.896;11.424;2023-02-10T14:46:23;71.53;;;28.33;;
12888;SDS011;56848;49.896;11.424;2023-02-10T14:49:01;78.18;;;28.90;;
12888;SDS011;56848;49.896;11.424;2023-02-10T14:51:38;70.95;;;28.85;;
12888;SDS011;56848;49.896;11.424;2023-02-10T14:54:09;71.38;;;26.73;;
12888;SDS011;56848;49.896;11.424;2023-02-10T14:56:39;54.78;;;21.05;;
12888;SDS011;56848;49.896;11.424;2023-02-10T14:59:05;73.97;;;27.57;;
12888;SDS011;56848;49.896;11.424;2023-02-10T15:01:42;64.55;;;21.80;;
12888;SDS011;56848;49.896;11.424;2023-02-10T15:04:07;63.07;;;24.63;;
12888;SDS011;56848;49.896;11.424;2023-02-10T15:06:42;71.53;;;28.40;;
12888;SDS011;56848;49.896;11.424;2023-02-10T15:09:18;75.22;;;31.05;;
12888;SDS011;56848;49.896;11.424;2023-02-10T15:11:58;69.88;;;26.85;;
12888;SDS011;56848;49.896;11.424;2023-02-10T15:14:44;99.05;;;40.67;;
12888;SDS011;56848;49.896;11.424;2023-02-10T15:17:23;67.53;;;26.50;;
12888;SDS011;56848;49.896;11.424;2023-02-10T15:22:42;90.30;;;30.65;;
12888;SDS011;56848;49.896;11.424;2023-02-10T15:27:58;73.97;;;26.58;;
12888;SDS011;56848;49.896;11.424;2023-02-10T15:30:28;91.07;;;34.17;;
12888;SDS011;56848;49.896;11.424;2023-02-10T15:32:55;84.82;;;33.22;;
12888;SDS011;56848;49.896;11.424;2023-02-10T15:35:22;77.07;;;29.40;;
12888;SDS011;56848;49.896;11.424;2023-02-10T15:37:49;92.30;;;30.42;;
12888;SDS011;56848;49.896;11.424;2023-02-10T15:40:21;85.80;;;30.92;;
12888;SDS011;56848;49.896;11.424;2023-02-10T15:42:56;74.53;;;27.33;;
12888;SDS011;56848;49.896;11.424;2023-02-10T15:45:30;82.07;;;30.95;;
12888;SDS011;56848;49.896;11.424;2023-02-10T15:48:05;71.47;;;28.50;;
12888;SDS011;56848;49.896;11.424;2023-02-10T15:50:34;92.40;;;32.92;;
12888;SDS011;56848;49.896;11.424;2023-02-10T15:53:01;87.90;;;31.83;;
12888;SDS011;56848;49.896;11.424;2023-02-10T15:55:30;79.83;;;30.50;;
12888;SDS011;56848;49.896;11.424;2023-02-10T15:57:59;88.75;;;31.80;;
12888;SDS011;56848;49.896;11.424;2023-02-10T16:00:29;91.55;;;32.13;;
12888;SDS011;56848;49.896;11.424;2023-02-10T16:02:56;82.60;;;32.72;;
12888;SDS011;56848;49.896;11.424;2023-02-10T16:05:23;87.95;;;32.35;;
12888;SDS011;56848;49.896;11.424;2023-02-10T16:07:50;90.85;;;30.90;;
12888;SDS011;56848;49.896;11.424;2023-02-10T16:10:18;82.60;;;32.90;;
12888;SDS011;56848;49.896;11.424;2023-02-10T16:12:48;84.47;;;32.83;;
12888;SDS011;56848;49.896;11.424;2023-02-10T16:15:17;85.97;;;32.97;;
12888;SDS011;56848;49.896;11.424;2023-02-10T16:17:46;88.00;;;28.77;;
12888;SDS011;56848;49.896;11.424;2023-02-10T16:20:16;88.80;;;31.58;;
12888;SDS011;56848;49.896;11.424;2023-02-10T16:22:45;85.97;;;29.00;;
12888;SDS011;56848;49.896;11.424;2023-02-10T16:25:12;75.95;;;28.75;;
12888;SDS011;56848;49.896;11.424;2023-02-10T16:27:38;94.43;;;31.73;;
12888;SDS011;56848;49.896;11.424;2023-02-10T16:30:04;78.43;;;30.53;;
12888;SDS011;56848;49.896;11.424;2023-02-10T16:32:30;77.32;;;29.60;;
12888;SDS011;56848;49.896;11.424;2023-02-10T16:34:56;84.77;;;31.80;;
12888;SDS011;56848;49.896;11.424;2023-02-10T16:37:21;89.43;;;32.10;;
12888;SDS011;56848;49.896;11.424;2023-02-10T16:39:48;83.77;;;31.67;;
12888;SDS011;56848;49.896;11.424;2023-02-10T16:42:14;100.13;;;32.97;;
12888;SDS011;56848;49.896;11.424;2023-02-10T16:44:40;90.53;;;33.33;;
12888;SDS011;56848;49.896;11.424;2023-02-10T16:47:06;79.97;;;32.10;;
12888;SDS011;56848;49.896;11.424;2023-02-10T16:49:31;77.93;;;30.27;;
12888;SDS011;56848;49.896;11.424;2023-02-10T16:51:57;79.80;;;29.60;;
12888;SDS011;56848;49.896;11.424;2023-02-10T16:54:22;81.47;;;31.90;;
12888;SDS011;56848;49.896;11.424;2023-02-10T16:56:48;80.93;;;30.33;;
12888;SDS011;56848;49.896;11.424;2023-02-10T16:59:15;74.37;;;29.03;;
12888;SDS011;56848;49.896;11.424;2023-02-10T17:01:43;78.30;;;29.55;;
12888;SDS011;56848;49.896;11.424;2023-02-10T17:04:10;82.40;;;29.48;;
12888;SDS011;56848;49.896;11.424;2023-02-10T17:06:39;83.25;;;28.67;;
12888;SDS011;56848;49.896;11.424;2023-02-10T17:09:12;90.82;;;31.23;;
12888;SDS011;56848;49.896;11.424;2023-02-10T17:11:42;73.50;;;29.65;;
12888;SDS011;56848;49.896;11.424;2023-02-10T17:14:08;75.93;;;29.38;;
12888;SDS011;56848;49.896;11.424;2023-02-10T17:16:34;72.83;;;28.30;;
12888;SDS011;56848;49.896;11.424;2023-02-10T17:19:02;80.95;;;29.58;;
12888;SDS011;56848;49.896;11.424;2023-02-10T17:21:29;90.20;;;31.50;;
12888;SDS011;56848;49.896;11.424;2023-02-10T17:23:54;85.03;;;32.80;;
12888;SDS011;56848;49.896;11.424;2023-02-10T17:26:20;79.00;;;28.77;;
12888;SDS011;56848;49.896;11.424;2023-02-10T17:28:45;78.87;;;31.00;;
12888;SDS011;56848;49.896;11.424;2023-02-10T17:31:15;73.27;;;29.73;;
12888;SDS011;56848;49.896;11.424;2023-02-10T17:33:42;79.05;;;29.23;;
12888;SDS011;56848;49.896;11.424;2023-02-10T17:36:20;68.97;;;27.70;;
12888;SDS011;56848;49.896;11.424;2023-02-10T17:38:48;60.28;;;24.40;;
12888;SDS011;56848;49.896;11.424;2023-02-10T17:41:21;62.55;;;26.65;;
12888;SDS011;56848;49.896;11.424;2023-02-10T17:43:49;62.50;;;24.63;;
12888;SDS011;56848;49.896;11.424;2023-02-10T17:46:16;62.92;;;25.73;;
12888;SDS011;56848;49.896;11.424;2023-02-10T17:48:42;60.03;;;25.83;;
12888;SDS011;56848;49.896;11.424;2023-02-10T17:51:10;57.13;;;25.10;;
12888;SDS011;56848;49.896;11.424;2023-02-10T17:53:39;64.88;;;25.55;;
12888;SDS011;56848;49.896;11.424;2023-02-10T17:56:04;57.60;;;24.97;;
12888;SDS011;56848;49.896;11.424;2023-02-10T17:58:31;59.58;;;24.83;;
12888;SDS011;56848;49.896;11.424;2023-02-10T18:00:57;59.85;;;24.17;;
12888;SDS011;56848;49.896;11.424;2023-02-10T18:03:23;62.45;;;25.60;;
12888;SDS011;56848;49.896;11.424;2023-02-10T18:05:50;59.50;;;24.27;;
12888;SDS011;56848;49.896;11.424;2023-02-10T18:08:20;63.90;;;25.85;;
12888;SDS011;56848;49.896;11.424;2023-02-10T18:10:47;65.20;;;24.33;;
12888;SDS011;56848;49.896;11.424;2023-02-10T18:13:14;55.70;;;26.23;;
12888;SDS011;56848;49.896;11.424;2023-02-10T18:15:40;71.80;;;27.05;;
12888;SDS011;56848;49.896;11.424;2023-02-10T18:18:06;70.90;;;25.25;;
12888;SDS011;56848;49.896;11.424;2023-02-10T18:20:32;59.83;;;25.97;;
12888;SDS011;56848;49.896;11.424;2023-02-10T18:22:58;68.00;;;26.10;;
12888;SDS011;56848;49.896;11.424;2023-02-10T18:25:24;57.13;;;25.50;;
12888;SDS011;56848;49.896;11.424;2023-02-10T18:27:50;61.67;;;26.47;;
12888;SDS011;56848;49.896;11.424;2023-02-10T18:30:16;62.08;;;23.92;;
12888;SDS011;56848;49.896;11.424;2023-02-10T18:32:42;62.88;;;25.30;;
12888;SDS011;56848;49.896;11.424;2023-02-10T18:35:12;62.23;;;25.70;;
12888;SDS011;56848;49.896;11.424;2023-02-10T18:37:38;63.40;;;25.45;;
12888;SDS011;56848;49.896;11.424;2023-02-10T18:40:04;74.47;;;27.60;;
12888;SDS011;56848;49.896;11.424;2023-02-10T18:42:31;65.60;;;26.60;;
12888;SDS011;56848;49.896;11.424;2023-02-10T18:44:57;68.57;;;26.95;;
12888;SDS011;56848;49.896;11.424;2023-02-10T18:47:22;72.70;;;27.37;;
12888;SDS011;56848;49.896;11.424;2023-02-10T18:49:48;62.93;;;26.23;;
12888;SDS011;56848;49.896;11.424;2023-02-10T18:52:14;63.77;;;26.40;;
12888;SDS011;56848;49.896;11.424;2023-02-10T18:54:40;73.10;;;26.63;;
12888;SDS011;56848;49.896;11.424;2023-02-10T18:57:05;58.07;;;25.00;;
12888;SDS011;56848;49.896;11.424;2023-02-10T18:59:31;67.03;;;25.40;;
12888;SDS011;56848;49.896;11.424;2023-02-10T19:01:57;66.97;;;26.57;;
12888;SDS011;56848;49.896;11.424;2023-02-10T19:04:22;66.10;;;26.67;;
12888;SDS011;56848;49.896;11.424;2023-02-10T19:06:48;56.77;;;26.13;;
12888;SDS011;56848;49.896;11.424;2023-02-10T19:09:13;64.50;;;26.50;;
12888;SDS011;56848;49.896;11.424;2023-02-10T19:11:39;75.88;;;27.48;;
12888;SDS011;56848;49.896;11.424;2023-02-10T19:14:05;68.10;;;25.87;;
12888;SDS011;56848;49.896;11.424;2023-02-10T19:16:32;70.47;;;25.90;;
12888;SDS011;56848;49.896;11.424;2023-02-10T19:18:58;75.15;;;27.05;;
12888;SDS011;56848;49.896;11.424;2023-02-10T19:21:25;59.85;;;25.70;;
12888;SDS011;56848;49.896;11.424;2023-02-10T19:23:50;62.80;;;25.40;;
12888;SDS011;56848;49.896;11.424;2023-02-10T19:26:16;60.87;;;26.07;;
12888;SDS011;56848;49.896;11.424;2023-02-10T19:28:42;58.27;;;26.40;;
12888;SDS011;56848;49.896;11.424;2023-02-10T19:31:09;59.97;;;25.20;;
12888;SDS011;56848;49.896;11.424;2023-02-10T19:33:36;56.75;;;25.13;;
12888;SDS011;56848;49.896;11.424;2023-02-10T19:36:03;53.63;;;24.30;;
12888;SDS011;56848;49.896;11.424;2023-02-10T19:38:29;55.40;;;25.50;;
12888;SDS011;56848;49.896;11.424;2023-02-10T19:41:06;64.77;;;26.07;;
12888;SDS011;56848;49.896;11.424;2023-02-10T19:43:36;57.00;;;24.73;;
12888;SDS011;56848;49.896;11.424;2023-02-10T19:46:02;62.97;;;23.03;;
12888;SDS011;56848;49.896;11.424;2023-02-10T19:48:30;60.47;;;25.05;;
12888;SDS011;56848;49.896;11.424;2023-02-10T19:51:06;76.85;;;24.80;;
12888;SDS011;56848;49.896;11.424;2023-02-10T19:53:35;67.90;;;26.38;;
12888;SDS011;56848;49.896;11.424;2023-02-10T19:56:01;59.75;;;25.00;;
12888;SDS011;56848;49.896;11.424;2023-02-10T19:58:27;54.92;;;23.17;;
12888;SDS011;56848;49.896;11.424;2023-02-10T20:00:57;70.80;;;25.50;;
12888;SDS011;56848;49.896;11.424;2023-02-10T20:03:23;65.55;;;26.17;;
12888;SDS011;56848;49.896;11.424;2023-02-10T20:05:49;67.23;;;25.40;;
12888;SDS011;56848;49.896;11.424;2023-02-10T20:08:15;61.67;;;24.60;;
12888;SDS011;56848;49.896;11.424;2023-02-10T20:10:40;68.00;;;26.63;;
12888;SDS011;56848;49.896;11.424;2023-02-10T20:13:06;66.17;;;25.60;;
12888;SDS011;56848;49.896;11.424;2023-02-10T20:15:32;69.60;;;27.55;;
12888;SDS011;56848;49.896;11.424;2023-02-10T20:17:58;61.33;;;24.60;;
12888;SDS011;56848;49.896;11.424;2023-02-10T20:20:24;53.83;;;24.30;;
12888;SDS011;56848;49.896;11.424;2023-02-10T20:22:49;58.93;;;24.43;;
12888;SDS011;56848;49.896;11.424;2023-02-10T20:25:15;62.13;;;24.37;;
12888;SDS011;56848;49.896;11.424;2023-02-10T20:27:41;58.37;;;25.00;;
12888;SDS011;56848;49.896;11.424;2023-02-10T20:30:06;69.80;;;26.23;;
12888;SDS011;56848;49.896;11.424;2023-02-10T20:32:32;59.53;;;25.20;;
12888;SDS011;56848;49.896;11.424;2023-02-10T20:34:58;65.37;;;25.43;;
12888;SDS011;56848;49.896;11.424;2023-02-10T20:37:23;62.47;;;24.20;;
12888;SDS011;56848;49.896;11.424;2023-02-10T20:39:49;67.70;;;26.57;;
12888;SDS011;56848;49.896;11.424;2023-02-10T20:42:15;71.07;;;25.90;;
12888;SDS011;56848;49.896;11.424;2023-02-10T20:44:40;63.53;;;26.50;;
12888;SDS011;56848;49.896;11.424;2023-02-10T20:47:06;63.13;;;25.40;;
12888;SDS011;56848;49.896;11.424;2023-02-10T20:49:32;64.45;;;25.20;;
12888;SDS011;56848;49.896;11.424;2023-02-10T20:51:58;67.20;;;25.80;;
12888;SDS011;56848;49.896;11.424;2023-02-10T20:54:24;62.60;;;25.50;;
12888;SDS011;56848;49.896;11.424;2023-02-10T20:56:49;58.77;;;24.53;;
12888;SDS011;56848;49.896;11.424;2023-02-10T20:59:15;59.93;;;25.20;;
12888;SDS011;56848;49.896;11.424;2023-02-10T21:01:40;68.23;;;26.17;;
12888;SDS011;56848;49.896;11.424;2023-02-10T21:04:06;60.27;;;25.70;;
12888;SDS011;56848;49.896;11.424;2023-02-10T21:06:31;67.97;;;27.03;;
12888;SDS011;56848;49.896;11.424;2023-02-10T21:08:57;62.67;;;25.47;;